sensor_id;sensor_type;location;lat;lon;timestamp;pressure;altitude;pressure_sealevel;temperature;humidity
6090;BME280;3073;42.660;23.316;2022-07-22T00:02:08;94605.41;;;23.61;98.87
6090;BME280;3073;42.660;23.316;2022-07-22T00:04:35;94606.69;;;23.55;100.00
6090;BME280;3073;42.660;23.316;2022-07-22T00:07:02;94598.44;;;23.36;100.00
6090;BME280;3073;42.660;23.316;2022-07-22T00:09:30;94609.94;;;23.43;100.00
6090;BME280;3073;42.660;23.316;2022-07-22T00:11:57;94603.50;;;23.32;100.00
6090;BME280;3073;42.660;23.316;2022-07-22T00:14:24;94610.13;;;23.30;100.00
6090;BME280;3073;42.660;23.316;2022-07-22T00:16:51;94611.38;;;23.24;100.00
6090;BME280;3073;42.660;23.316;2022-07-22T00:19:18;94610.03;;;23.18;100.00
6090;BME280;3073;42.660;23.316;2022-07-22T00:21:45;94609.34;;;22.91;100.00
6090;BME280;3073;42.660;23.316;2022-07-22T00:24:12;94608.72;;;22.94;100.00
6090;BME280;3073;42.660;23.316;2022-07-22T00:26:40;94612.69;;;22.92;100.00
6090;BME280;3073;42.660;23.316;2022-07-22T00:29:07;94612.25;;;22.81;100.00
6090;BME280;3073;42.660;23.316;2022-07-22T00:31:36;94620.69;;;22.70;100.00
6090;BME280;3073;42.660;23.316;2022-07-22T00:34:03;94620.69;;;22.61;100.00
6090;BME280;3073;42.660;23.316;2022-07-22T00:36:30;94628.63;;;22.56;100.00
6090;BME280;3073;42.660;23.316;2022-07-22T00:38:57;94617.16;;;22.48;100.00
6090;BME280;3073;42.660;23.316;2022-07-22T00:41:24;94622.81;;;22.42;100.00
6090;BME280;3073;42.660;23.316;2022-07-22T00:43:55;94629.56;;;22.43;100.00
6090;BME280;3073;42.660;23.316;2022-07-22T00:46:25;94623.13;;;22.49;100.00
6090;BME280;3073;42.660;23.316;2022-07-22T00:48:53;94621.91;;;22.46;100.00
6090;BME280;3073;42.660;23.316;2022-07-22T00:51:21;94620.22;;;22.33;100.00
6090;BME280;3073;42.660;23.316;2022-07-22T00:53:48;94624.34;;;22.43;100.00
6090;BME280;3073;42.660;23.316;2022-07-22T00:56:15;94623.44;;;22.39;100.00
6090;BME280;3073;42.660;23.316;2022-07-22T00:58:43;94624.97;;;22.40;100.00
6090;BME280;3073;42.660;23.316;2022-07-22T01:01:12;94621.28;;;22.32;100.00
6090;BME280;3073;42.660;23.316;2022-07-22T01:03:40;94625.13;;;22.35;100.00
6090;BME280;3073;42.660;23.316;2022-07-22T01:06:08;94612.88;;;22.35;100.00
6090;BME280;3073;42.660;23.316;2022-07-22T01:08:37;94613.03;;;22.39;100.00
6090;BME280;3073;42.660;23.316;2022-07-22T01:11:08;94614.72;;;22.35;100.00
6090;BME280;3073;42.660;23.316;2022-07-22T01:13:35;94615.47;;;22.27;100.00
6090;BME280;3073;42.660;23.316;2022-07-22T01:16:02;94614.13;;;22.21;100.00
6090;BME280;3073;42.660;23.316;2022-07-22T01:18:31;94616.72;;;22.21;100.00
6090;BME280;3073;42.660;23.316;2022-07-22T01:20:59;94617.47;;;22.21;100.00
6090;BME280;3073;42.660;23.316;2022-07-22T01:23:26;94622.81;;;22.16;100.00
6090;BME280;3073;42.660;23.316;2022-07-22T01:25:53;94623.44;;;22.04;100.00
6090;BME280;3073;42.660;23.316;2022-07-22T01:28:20;94625.09;;;22.00;100.00
6090;BME280;3073;42.660;23.316;2022-07-22T01:30:47;94625.22;;;21.95;100.00
6090;BME280;3073;42.660;23.316;2022-07-22T01:33:15;94613.25;;;21.77;100.00
6090;BME280;3073;42.660;23.316;2022-07-22T01:35:42;94617.97;;;21.75;100.00
6090;BME280;3073;42.660;23.316;2022-07-22T01:38:11;94613.53;;;21.67;100.00
6090;BME280;3073;42.660;23.316;2022-07-22T01:40:38;94616.88;;;21.59;100.00
6090;BME280;3073;42.660;23.316;2022-07-22T01:43:05;94609.41;;;21.58;100.00
6090;BME280;3073;42.660;23.316;2022-07-22T01:45:32;94605.25;;;21.48;100.00
6090;BME280;3073;42.660;23.316;2022-07-22T01:48:00;94613.13;;;21.34;100.00
6090;BME280;3073;42.660;23.316;2022-07-22T01:50:27;94618.44;;;21.29;100.00
6090;BME280;3073;42.660;23.316;2022-07-22T01:52:54;94617.84;;;21.32;100.00
6090;BME280;3073;42.660;23.316;2022-07-22T01:55:22;94618.28;;;21.26;100.00
6090;BME280;3073;42.660;23.316;2022-07-22T01:57:49;94619.16;;;21.13;100.00
6090;BME280;3073;42.660;23.316;2022-07-22T02:00:16;94619.91;;;21.13;100.00
6090;BME280;3073;42.660;23.316;2022-07-22T02:02:43;94616.19;;;21.05;100.00
6090;BME280;3073;42.660;23.316;2022-07-22T02:05:10;94618.16;;;21.08;100.00
6090;BME280;3073;42.660;23.316;2022-07-22T02:07:37;94625.13;;;21.22;100.00
6090;BME280;3073;42.660;23.316;2022-07-22T02:10:05;94618.41;;;20.68;100.00
6090;BME280;3073;42.660;23.316;2022-07-22T02:12:33;94625.06;;;20.60;100.00
6090;BME280;3073;42.660;23.316;2022-07-22T02:15:00;94628.66;;;20.73;100.00
6090;BME280;3073;42.660;23.316;2022-07-22T02:17:27;94627.00;;;20.77;100.00
6090;BME280;3073;42.660;23.316;2022-07-22T02:19:54;94630.47;;;20.72;100.00
6090;BME280;3073;42.660;23.316;2022-07-22T02:22:21;94634.47;;;20.78;100.00
6090;BME280;3073;42.660;23.316;2022-07-22T02:24:47;94634.75;;;20.68;100.00
6090;BME280;3073;42.660;23.316;2022-07-22T02:27:14;94630.44;;;20.64;100.00
6090;BME280;3073;42.660;23.316;2022-07-22T02:29:42;94631.91;;;20.56;100.00
6090;BME280;3073;42.660;23.316;2022-07-22T02:32:09;94629.72;;;20.49;100.00
6090;BME280;3073;42.660;23.316;2022-07-22T02:34:36;94639.59;;;20.61;100.00
6090;BME280;3073;42.660;23.316;2022-07-22T02:37:03;94640.91;;;20.59;100.00
6090;BME280;3073;42.660;23.316;2022-07-22T02:39:30;94634.81;;;20.54;100.00
6090;BME280;3073;42.660;23.316;2022-07-22T02:41:57;94638.56;;;20.71;100.00
6090;BME280;3073;42.660;23.316;2022-07-22T02:44:24;94633.97;;;20.68;100.00
6090;BME280;3073;42.660;23.316;2022-07-22T02:46:52;94640.09;;;20.49;100.00
6090;BME280;3073;42.660;23.316;2022-07-22T02:49:19;94627.53;;;20.43;100.00
6090;BME280;3073;42.660;23.316;2022-07-22T02:51:46;94639.94;;;20.32;100.00
6090;BME280;3073;42.660;23.316;2022-07-22T02:54:13;94641.19;;;20.35;100.00
6090;BME280;3073;42.660;23.316;2022-07-22T02:56:39;94635.06;;;20.31;100.00
6090;BME280;3073;42.660;23.316;2022-07-22T02:59:06;94634.78;;;20.32;100.00
6090;BME280;3073;42.660;23.316;2022-07-22T03:01:33;94624.31;;;20.37;100.00
6090;BME280;3073;42.660;23.316;2022-07-22T03:04:01;94627.19;;;20.36;100.00
6090;BME280;3073;42.660;23.316;2022-07-22T03:06:28;94621.53;;;20.34;100.00
6090;BME280;3073;42.660;23.316;2022-07-22T03:08:55;94625.63;;;20.35;100.00
6090;BME280;3073;42.660;23.316;2022-07-22T03:11:22;94626.91;;;20.37;100.00
6090;BME280;3073;42.660;23.316;2022-07-22T03:13:49;94631.53;;;20.49;100.00
6090;BME280;3073;42.660;23.316;2022-07-22T03:16:17;94626.94;;;20.46;100.00
6090;BME280;3073;42.660;23.316;2022-07-22T03:18:43;94633.09;;;20.50;100.00
6090;BME280;3073;42.660;23.316;2022-07-22T03:21:12;94628.38;;;20.52;100.00
6090;BME280;3073;42.660;23.316;2022-07-22T03:23:39;94637.41;;;20.54;100.00
6090;BME280;3073;42.660;23.316;2022-07-22T03:26:06;94631.53;;;20.49;100.00
6090;BME280;3073;42.660;23.316;2022-07-22T03:28:33;94637.09;;;20.56;100.00
6090;BME280;3073;42.660;23.316;2022-07-22T03:30:59;94634.41;;;20.61;100.00
6090;BME280;3073;42.660;23.316;2022-07-22T03:33:26;94636.50;;;20.59;100.00
6090;BME280;3073;42.660;23.316;2022-07-22T03:35:53;94630.13;;;20.65;100.00
6090;BME280;3073;42.660;23.316;2022-07-22T03:38:22;94638.09;;;20.69;100.00
6090;BME280;3073;42.660;23.316;2022-07-22T03:40:48;94645.41;;;20.67;100.00
6090;BME280;3073;42.660;23.316;2022-07-22T03:43:15;94642.91;;;20.62;100.00
6090;BME280;3073;42.660;23.316;2022-07-22T03:45:42;94651.06;;;20.69;100.00
6090;BME280;3073;42.660;23.316;2022-07-22T03:48:10;94645.13;;;20.68;100.00
6090;BME280;3073;42.660;23.316;2022-07-22T03:50:37;94648.63;;;20.72;100.00
6090;BME280;3073;42.660;23.316;2022-07-22T03:53:06;94649.41;;;20.73;100.00
6090;BME280;3073;42.660;23.316;2022-07-22T03:55:35;94653.59;;;20.82;100.00
6090;BME280;3073;42.660;23.316;2022-07-22T03:58:01;94650.00;;;20.70;100.00
6090;BME280;3073;42.660;23.316;2022-07-22T04:00:28;94666.56;;;20.82;100.00
6090;BME280;3073;42.660;23.316;2022-07-22T04:02:56;94657.38;;;20.76;100.00
6090;BME280;3073;42.660;23.316;2022-07-22T04:05:22;94656.19;;;20.82;100.00
6090;BME280;3073;42.660;23.316;2022-07-22T04:07:49;94652.75;;;20.95;100.00
6090;BME280;3073;42.660;23.316;2022-07-22T04:10:16;94660.06;;;20.93;100.00
6090;BME280;3073;42.660;23.316;2022-07-22T04:12:45;94665.00;;;21.03;100.00
6090;BME280;3073;42.660;23.316;2022-07-22T04:15:11;94670.69;;;20.83;100.00
6090;BME280;3073;42.660;23.316;2022-07-22T04:17:38;94667.69;;;20.90;100.00
6090;BME280;3073;42.660;23.316;2022-07-22T04:20:06;94660.66;;;20.90;100.00
6090;BME280;3073;42.660;23.316;2022-07-22T04:22:33;94676.09;;;20.95;100.00
6090;BME280;3073;42.660;23.316;2022-07-22T04:25:00;94666.06;;;21.02;100.00
6090;BME280;3073;42.660;23.316;2022-07-22T04:27:28;94665.72;;;20.95;100.00
6090;BME280;3073;42.660;23.316;2022-07-22T04:29:56;94671.56;;;20.79;100.00
6090;BME280;3073;42.660;23.316;2022-07-22T04:32:23;94674.28;;;20.96;100.00
6090;BME280;3073;42.660;23.316;2022-07-22T04:34:50;94676.22;;;21.13;100.00
6090;BME280;3073;42.660;23.316;2022-07-22T04:37:17;94678.28;;;21.24;100.00
6090;BME280;3073;42.660;23.316;2022-07-22T04:39:44;94681.78;;;21.20;100.00
6090;BME280;3073;42.660;23.316;2022-07-22T04:42:11;94678.03;;;21.34;100.00
6090;BME280;3073;42.660;23.316;2022-07-22T04:44:39;94677.00;;;21.44;100.00
6090;BME280;3073;42.660;23.316;2022-07-22T04:47:11;94682.03;;;21.40;100.00
6090;BME280;3073;42.660;23.316;2022-07-22T04:49:39;94684.56;;;21.32;100.00
6090;BME280;3073;42.660;23.316;2022-07-22T04:52:06;94694.16;;;21.23;100.00
6090;BME280;3073;42.660;23.316;2022-07-22T04:54:33;94687.50;;;21.39;100.00
6090;BME280;3073;42.660;23.316;2022-07-22T04:56:59;94700.31;;;21.35;100.00
6090;BME280;3073;42.660;23.316;2022-07-22T04:59:26;94695.72;;;21.32;100.00
6090;BME280;3073;42.660;23.316;2022-07-22T05:01:53;94699.63;;;21.52;100.00
6090;BME280;3073;42.660;23.316;2022-07-22T05:04:21;94692.25;;;21.76;100.00
6090;BME280;3073;42.660;23.316;2022-07-22T05:06:48;94701.50;;;21.91;100.00
6090;BME280;3073;42.660;23.316;2022-07-22T05:09:15;94695.88;;;21.97;100.00
6090;BME280;3073;42.660;23.316;2022-07-22T05:11:42;94692.84;;;22.13;100.00
6090;BME280;3073;42.660;23.316;2022-07-22T05:14:09;94696.38;;;22.17;100.00
6090;BME280;3073;42.660;23.316;2022-07-22T05:16:37;94703.75;;;22.40;100.00
6090;BME280;3073;42.660;23.316;2022-07-22T05:19:04;94699.47;;;22.53;100.00
6090;BME280;3073;42.660;23.316;2022-07-22T05:21:33;94697.19;;;22.69;100.00
6090;BME280;3073;42.660;23.316;2022-07-22T05:24:01;94696.13;;;22.70;100.00
6090;BME280;3073;42.660;23.316;2022-07-22T05:26:30;94705.31;;;22.93;100.00
6090;BME280;3073;42.660;23.316;2022-07-22T05:28:58;94705.31;;;22.67;100.00
6090;BME280;3073;42.660;23.316;2022-07-22T05:31:25;94708.38;;;22.78;100.00
6090;BME280;3073;42.660;23.316;2022-07-22T05:33:52;94703.28;;;22.98;100.00
6090;BME280;3073;42.660;23.316;2022-07-22T05:36:19;94711.41;;;23.05;100.00
6090;BME280;3073;42.660;23.316;2022-07-22T05:38:47;94709.09;;;23.13;100.00
6090;BME280;3073;42.660;23.316;2022-07-22T05:41:14;94712.63;;;23.17;100.00
6090;BME280;3073;42.660;23.316;2022-07-22T05:43:41;94703.88;;;23.30;100.00
6090;BME280;3073;42.660;23.316;2022-07-22T05:46:07;94706.97;;;23.15;100.00
6090;BME280;3073;42.660;23.316;2022-07-22T05:48:34;94710.13;;;23.29;100.00
6090;BME280;3073;42.660;23.316;2022-07-22T05:51:02;94708.16;;;23.26;100.00
6090;BME280;3073;42.660;23.316;2022-07-22T05:53:42;94709.50;;;23.49;100.00
6090;BME280;3073;42.660;23.316;2022-07-22T05:56:10;94708.72;;;23.57;100.00
6090;BME280;3073;42.660;23.316;2022-07-22T05:58:38;94705.09;;;23.79;100.00
6090;BME280;3073;42.660;23.316;2022-07-22T06:01:05;94704.63;;;23.85;100.00
6090;BME280;3073;42.660;23.316;2022-07-22T06:03:32;94703.66;;;24.28;100.00
6090;BME280;3073;42.660;23.316;2022-07-22T06:05:58;94701.75;;;24.99;100.00
6090;BME280;3073;42.660;23.316;2022-07-22T06:08:26;94708.50;;;25.33;89.81
6090;BME280;3073;42.660;23.316;2022-07-22T06:10:53;94702.94;;;25.79;85.54
6090;BME280;3073;42.660;23.316;2022-07-22T06:13:22;94706.56;;;26.75;82.50
6090;BME280;3073;42.660;23.316;2022-07-22T06:15:50;94708.16;;;27.79;76.12
6090;BME280;3073;42.660;23.316;2022-07-22T06:18:17;94708.69;;;28.19;70.64
6090;BME280;3073;42.660;23.316;2022-07-22T06:20:44;94701.00;;;28.99;67.86
6090;BME280;3073;42.660;23.316;2022-07-22T06:23:11;94703.88;;;29.52;61.70
6090;BME280;3073;42.660;23.316;2022-07-22T06:25:37;94699.94;;;29.88;61.38
6090;BME280;3073;42.660;23.316;2022-07-22T06:28:05;94705.72;;;29.97;57.77
6090;BME280;3073;42.660;23.316;2022-07-22T06:30:33;94709.66;;;30.92;54.73
6090;BME280;3073;42.660;23.316;2022-07-22T06:33:07;94711.50;;;31.55;52.67
6090;BME280;3073;42.660;23.316;2022-07-22T06:35:34;94714.97;;;32.10;50.77
6090;BME280;3073;42.660;23.316;2022-07-22T06:38:01;94706.44;;;31.83;49.57
6090;BME280;3073;42.660;23.316;2022-07-22T06:40:29;94705.09;;;31.59;48.98
6090;BME280;3073;42.660;23.316;2022-07-22T06:43:00;94712.34;;;32.13;48.06
6090;BME280;3073;42.660;23.316;2022-07-22T06:45:28;94713.47;;;32.09;48.14
6090;BME280;3073;42.660;23.316;2022-07-22T06:47:56;94711.41;;;32.50;47.62
6090;BME280;3073;42.660;23.316;2022-07-22T06:50:23;94711.91;;;32.04;47.23
6090;BME280;3073;42.660;23.316;2022-07-22T06:52:51;94718.09;;;32.30;47.23
6090;BME280;3073;42.660;23.316;2022-07-22T06:55:18;94709.28;;;32.70;46.56
6090;BME280;3073;42.660;23.316;2022-07-22T06:57:44;94717.28;;;32.84;45.17
6090;BME280;3073;42.660;23.316;2022-07-22T07:00:12;94706.88;;;32.47;45.12
6090;BME280;3073;42.660;23.316;2022-07-22T07:02:40;94711.56;;;32.09;46.69
6090;BME280;3073;42.660;23.316;2022-07-22T07:05:08;94718.06;;;32.26;45.48
6090;BME280;3073;42.660;23.316;2022-07-22T07:07:36;94716.38;;;32.00;46.07
6090;BME280;3073;42.660;23.316;2022-07-22T07:10:03;94716.59;;;32.25;45.06
6090;BME280;3073;42.660;23.316;2022-07-22T07:12:30;94719.78;;;32.55;45.72
6090;BME280;3073;42.660;23.316;2022-07-22T07:14:57;94716.94;;;32.92;44.24
6090;BME280;3073;42.660;23.316;2022-07-22T07:17:24;94721.19;;;32.35;45.28
6090;BME280;3073;42.660;23.316;2022-07-22T07:19:51;94716.91;;;32.85;44.45
6090;BME280;3073;42.660;23.316;2022-07-22T07:22:19;94713.22;;;33.07;44.48
6090;BME280;3073;42.660;23.316;2022-07-22T07:24:46;94725.38;;;33.30;43.28
6090;BME280;3073;42.660;23.316;2022-07-22T07:27:13;94717.84;;;33.39;42.45
6090;BME280;3073;42.660;23.316;2022-07-22T07:29:39;94719.31;;;33.15;42.65
6090;BME280;3073;42.660;23.316;2022-07-22T07:32:06;94714.44;;;32.48;43.14
6090;BME280;3073;42.660;23.316;2022-07-22T07:34:33;94724.56;;;32.32;43.41
6090;BME280;3073;42.660;23.316;2022-07-22T07:36:59;94722.31;;;32.38;43.92
6090;BME280;3073;42.660;23.316;2022-07-22T07:39:28;94716.72;;;32.50;43.79
6090;BME280;3073;42.660;23.316;2022-07-22T07:41:55;94715.97;;;32.53;44.03
6090;BME280;3073;42.660;23.316;2022-07-22T07:44:22;94721.88;;;32.29;43.59
6090;BME280;3073;42.660;23.316;2022-07-22T07:46:48;94727.09;;;32.83;43.76
6090;BME280;3073;42.660;23.316;2022-07-22T07:49:16;94721.41;;;32.78;43.34
6090;BME280;3073;42.660;23.316;2022-07-22T07:51:44;94723.88;;;33.25;41.29
6090;BME280;3073;42.660;23.316;2022-07-22T07:54:10;94722.25;;;33.06;42.53
6090;BME280;3073;42.660;23.316;2022-07-22T07:56:39;94716.44;;;32.62;43.03
6090;BME280;3073;42.660;23.316;2022-07-22T07:59:06;94721.56;;;33.17;41.84
6090;BME280;3073;42.660;23.316;2022-07-22T08:01:33;94718.09;;;32.98;41.53
6090;BME280;3073;42.660;23.316;2022-07-22T08:03:59;94722.09;;;33.75;41.88
6090;BME280;3073;42.660;23.316;2022-07-22T08:06:27;94715.66;;;33.94;39.36
6090;BME280;3073;42.660;23.316;2022-07-22T08:08:54;94719.81;;;33.70;39.48
6090;BME280;3073;42.660;23.316;2022-07-22T08:11:21;94714.50;;;33.70;39.18
6090;BME280;3073;42.660;23.316;2022-07-22T08:13:49;94722.41;;;34.55;39.12
6090;BME280;3073;42.660;23.316;2022-07-22T08:16:17;94718.81;;;35.07;38.64
6090;BME280;3073;42.660;23.316;2022-07-22T08:18:43;94722.25;;;35.74;37.82
6090;BME280;3073;42.660;23.316;2022-07-22T08:21:10;94723.56;;;36.44;34.89
6090;BME280;3073;42.660;23.316;2022-07-22T08:23:37;94722.22;;;36.66;34.23
6090;BME280;3073;42.660;23.316;2022-07-22T08:26:04;94725.34;;;36.17;34.41
6090;BME280;3073;42.660;23.316;2022-07-22T08:28:31;94723.63;;;35.92;33.59
6090;BME280;3073;42.660;23.316;2022-07-22T08:30:59;94719.44;;;34.21;35.96
6090;BME280;3073;42.660;23.316;2022-07-22T08:33:26;94726.78;;;35.07;36.54
6090;BME280;3073;42.660;23.316;2022-07-22T08:35:52;94720.97;;;36.37;34.05
6090;BME280;3073;42.660;23.316;2022-07-22T08:38:19;94732.28;;;36.85;33.32
6090;BME280;3073;42.660;23.316;2022-07-22T08:40:46;94730.34;;;38.23;31.94
6090;BME280;3073;42.660;23.316;2022-07-22T08:43:13;94729.13;;;38.04;31.59
6090;BME280;3073;42.660;23.316;2022-07-22T08:45:40;94730.69;;;37.52;31.80
6090;BME280;3073;42.660;23.316;2022-07-22T08:48:09;94728.13;;;37.72;31.45
6090;BME280;3073;42.660;23.316;2022-07-22T08:50:36;94729.25;;;36.01;32.55
6090;BME280;3073;42.660;23.316;2022-07-22T08:53:03;94733.06;;;35.42;32.81
6090;BME280;3073;42.660;23.316;2022-07-22T08:55:30;94727.72;;;34.55;34.12
6090;BME280;3073;42.660;23.316;2022-07-22T08:57:57;94729.38;;;35.84;33.84
6090;BME280;3073;42.660;23.316;2022-07-22T09:00:24;94738.72;;;36.47;33.01
6090;BME280;3073;42.660;23.316;2022-07-22T09:02:51;94734.25;;;37.11;32.32
6090;BME280;3073;42.660;23.316;2022-07-22T09:05:19;94733.81;;;37.43;31.97
6090;BME280;3073;42.660;23.316;2022-07-22T09:07:46;94742.28;;;37.38;30.53
6090;BME280;3073;42.660;23.316;2022-07-22T09:10:15;94742.88;;;37.53;30.56
6090;BME280;3073;42.660;23.316;2022-07-22T09:12:53;94742.00;;;38.56;30.30
6090;BME280;3073;42.660;23.316;2022-07-22T09:15:26;94740.59;;;38.48;30.49
6090;BME280;3073;42.660;23.316;2022-07-22T09:17:53;94738.22;;;38.07;30.00
6090;BME280;3073;42.660;23.316;2022-07-22T09:20:22;94732.94;;;38.50;28.49
6090;BME280;3073;42.660;23.316;2022-07-22T09:22:50;94732.69;;;35.40;31.67
6090;BME280;3073;42.660;23.316;2022-07-22T09:25:23;94730.94;;;35.81;31.57
6090;BME280;3073;42.660;23.316;2022-07-22T09:27:52;94730.09;;;36.73;30.76
6090;BME280;3073;42.660;23.316;2022-07-22T09:30:20;94724.47;;;35.17;32.69
6090;BME280;3073;42.660;23.316;2022-07-22T09:32:48;94726.06;;;35.76;32.33
6090;BME280;3073;42.660;23.316;2022-07-22T09:35:15;94720.50;;;35.49;32.88
6090;BME280;3073;42.660;23.316;2022-07-22T09:37:50;94719.41;;;35.98;32.40
6090;BME280;3073;42.660;23.316;2022-07-22T09:40:19;94726.03;;;36.99;31.92
6090;BME280;3073;42.660;23.316;2022-07-22T09:42:49;94717.19;;;37.36;30.21
6090;BME280;3073;42.660;23.316;2022-07-22T09:45:17;94721.31;;;36.42;30.56
6090;BME280;3073;42.660;23.316;2022-07-22T09:47:45;94729.25;;;37.71;30.65
6090;BME280;3073;42.660;23.316;2022-07-22T09:50:19;94729.56;;;37.76;29.92
6090;BME280;3073;42.660;23.316;2022-07-22T09:52:51;94723.88;;;38.87;29.22
6090;BME280;3073;42.660;23.316;2022-07-22T09:55:20;94723.78;;;39.10;28.51
6090;BME280;3073;42.660;23.316;2022-07-22T09:57:48;94718.22;;;39.56;28.04
6090;BME280;3073;42.660;23.316;2022-07-22T10:00:19;94719.41;;;38.80;27.99
6090;BME280;3073;42.660;23.316;2022-07-22T10:02:49;94710.06;;;38.92;27.59
6090;BME280;3073;42.660;23.316;2022-07-22T10:05:18;94712.88;;;37.72;29.20
6090;BME280;3073;42.660;23.316;2022-07-22T10:07:46;94714.53;;;37.36;29.88
6090;BME280;3073;42.660;23.316;2022-07-22T10:10:15;94710.03;;;38.09;28.80
6090;BME280;3073;42.660;23.316;2022-07-22T10:12:42;94705.22;;;39.23;28.74
6090;BME280;3073;42.660;23.316;2022-07-22T10:15:11;94707.22;;;38.40;29.00
6090;BME280;3073;42.660;23.316;2022-07-22T10:17:40;94696.63;;;38.95;28.80
6090;BME280;3073;42.660;23.316;2022-07-22T10:20:09;94701.75;;;38.24;28.43
6090;BME280;3073;42.660;23.316;2022-07-22T10:22:51;94693.72;;;39.26;28.61
6090;BME280;3073;42.660;23.316;2022-07-22T10:25:20;94700.53;;;39.62;27.83
6090;BME280;3073;42.660;23.316;2022-07-22T10:27:51;94695.97;;;39.43;28.32
6090;BME280;3073;42.660;23.316;2022-07-22T10:30:20;94701.03;;;40.22;27.87
6090;BME280;3073;42.660;23.316;2022-07-22T10:33:11;94705.97;;;40.94;26.91
6090;BME280;3073;42.660;23.316;2022-07-22T10:35:54;94701.44;;;41.20;26.71
6090;BME280;3073;42.660;23.316;2022-07-22T10:38:22;94694.78;;;40.70;26.15
6090;BME280;3073;42.660;23.316;2022-07-22T10:40:53;94692.16;;;38.06;27.89
6090;BME280;3073;42.660;23.316;2022-07-22T10:43:23;94691.06;;;38.47;28.48
6090;BME280;3073;42.660;23.316;2022-07-22T10:45:52;94691.69;;;39.66;28.08
6090;BME280;3073;42.660;23.316;2022-07-22T10:48:21;94683.56;;;40.18;27.30
6090;BME280;3073;42.660;23.316;2022-07-22T10:50:54;94700.91;;;41.12;26.93
6090;BME280;3073;42.660;23.316;2022-07-22T10:53:24;94695.00;;;41.17;25.49
6090;BME280;3073;42.660;23.316;2022-07-22T10:56:06;94692.09;;;41.24;25.74
6090;BME280;3073;42.660;23.316;2022-07-22T10:58:54;94693.38;;;41.95;24.39
6090;BME280;3073;42.660;23.316;2022-07-22T11:01:25;94696.19;;;41.54;24.88
6090;BME280;3073;42.660;23.316;2022-07-22T11:03:52;94687.94;;;41.36;24.75
6090;BME280;3073;42.660;23.316;2022-07-22T11:06:24;94688.25;;;40.71;25.10
6090;BME280;3073;42.660;23.316;2022-07-22T11:08:54;94683.47;;;40.21;26.34
6090;BME280;3073;42.660;23.316;2022-07-22T11:11:37;94676.81;;;39.48;26.77
6090;BME280;3073;42.660;23.316;2022-07-22T11:14:13;94676.78;;;39.64;26.73
6090;BME280;3073;42.660;23.316;2022-07-22T11:16:40;94680.56;;;40.16;26.52
6090;BME280;3073;42.660;23.316;2022-07-22T11:19:07;94680.03;;;40.78;26.19
6090;BME280;3073;42.660;23.316;2022-07-22T11:21:34;94674.31;;;41.18;25.71
6090;BME280;3073;42.660;23.316;2022-07-22T11:24:03;94671.16;;;40.81;25.95
6090;BME280;3073;42.660;23.316;2022-07-22T11:26:39;94674.53;;;40.40;26.24
6090;BME280;3073;42.660;23.316;2022-07-22T11:29:06;94671.03;;;40.85;26.31
6090;BME280;3073;42.660;23.316;2022-07-22T11:31:34;94675.88;;;41.91;24.59
6090;BME280;3073;42.660;23.316;2022-07-22T11:34:09;94673.69;;;42.11;24.53
6090;BME280;3073;42.660;23.316;2022-07-22T11:36:39;94666.88;;;42.32;24.43
6090;BME280;3073;42.660;23.316;2022-07-22T11:39:07;94666.13;;;42.75;24.32
6090;BME280;3073;42.660;23.316;2022-07-22T11:41:37;94670.81;;;42.83;24.02
6090;BME280;3073;42.660;23.316;2022-07-22T11:44:04;94670.81;;;43.54;23.40
6090;BME280;3073;42.660;23.316;2022-07-22T11:46:36;94671.16;;;42.64;24.79
6090;BME280;3073;42.660;23.316;2022-07-22T11:49:04;94668.06;;;42.74;24.28
6090;BME280;3073;42.660;23.316;2022-07-22T11:51:32;94669.47;;;41.88;24.52
6090;BME280;3073;42.660;23.316;2022-07-22T11:54:00;94678.28;;;41.63;24.52
6090;BME280;3073;42.660;23.316;2022-07-22T11:56:27;94661.47;;;41.25;24.67
6090;BME280;3073;42.660;23.316;2022-07-22T11:58:57;94663.06;;;41.48;24.93
6090;BME280;3073;42.660;23.316;2022-07-22T12:01:26;94668.53;;;42.17;24.86
6090;BME280;3073;42.660;23.316;2022-07-22T12:03:58;94665.38;;;42.18;24.75
6090;BME280;3073;42.660;23.316;2022-07-22T12:06:26;94651.41;;;41.17;24.66
6090;BME280;3073;42.660;23.316;2022-07-22T12:08:56;94644.16;;;40.47;25.66
6090;BME280;3073;42.660;23.316;2022-07-22T12:11:28;94643.41;;;40.88;25.08
6090;BME280;3073;42.660;23.316;2022-07-22T12:14:04;94642.06;;;40.54;25.59
6090;BME280;3073;42.660;23.316;2022-07-22T12:16:31;94649.63;;;40.85;25.75
6090;BME280;3073;42.660;23.316;2022-07-22T12:19:00;94647.63;;;41.01;25.09
6090;BME280;3073;42.660;23.316;2022-07-22T12:21:29;94647.63;;;41.14;25.04
6090;BME280;3073;42.660;23.316;2022-07-22T12:24:00;94649.94;;;41.75;24.99
6090;BME280;3073;42.660;23.316;2022-07-22T12:26:38;94646.03;;;42.01;24.58
6090;BME280;3073;42.660;23.316;2022-07-22T12:29:23;94645.53;;;42.50;24.37
6090;BME280;3073;42.660;23.316;2022-07-22T12:31:52;94648.47;;;42.08;24.05
6090;BME280;3073;42.660;23.316;2022-07-22T12:34:33;94650.72;;;42.23;24.21
6090;BME280;3073;42.660;23.316;2022-07-22T12:37:11;94642.34;;;42.08;23.92
6090;BME280;3073;42.660;23.316;2022-07-22T12:39:38;94643.13;;;42.30;24.33
6090;BME280;3073;42.660;23.316;2022-07-22T12:42:16;94648.41;;;41.99;23.82
6090;BME280;3073;42.660;23.316;2022-07-22T12:44:52;94641.94;;;41.25;24.35
6090;BME280;3073;42.660;23.316;2022-07-22T12:47:47;94640.53;;;41.83;24.23
6090;BME280;3073;42.660;23.316;2022-07-22T12:50:19;94636.50;;;41.53;24.52
6090;BME280;3073;42.660;23.316;2022-07-22T12:52:48;94636.19;;;41.39;24.71
6090;BME280;3073;42.660;23.316;2022-07-22T12:55:15;94642.88;;;41.69;24.36
6090;BME280;3073;42.660;23.316;2022-07-22T12:57:42;94633.81;;;41.16;24.97
6090;BME280;3073;42.660;23.316;2022-07-22T13:00:16;94622.94;;;41.57;24.58
6090;BME280;3073;42.660;23.316;2022-07-22T13:02:43;94631.13;;;41.41;24.31
6090;BME280;3073;42.660;23.316;2022-07-22T13:05:10;94632.38;;;39.71;24.88
6090;BME280;3073;42.660;23.316;2022-07-22T13:07:38;94627.94;;;39.64;25.98
6090;BME280;3073;42.660;23.316;2022-07-22T13:10:06;94622.78;;;39.41;25.47
6090;BME280;3073;42.660;23.316;2022-07-22T13:12:33;94628.78;;;39.45;25.67